sensor_id;sensor_type;location;lat;lon;timestamp;P1;durP1;ratioP1;P2;durP2;ratioP2
51082;SDS011;37131;42.694;23.350;2022-10-31T00:00:45;4.78;;;1.00;;
51082;SDS011;37131;42.694;23.350;2022-10-31T00:03:11;3.42;;;1.20;;
51082;SDS011;37131;42.694;23.350;2022-10-31T00:05:40;2.25;;;0.80;;
51082;SDS011;37131;42.694;23.350;2022-10-31T00:08:07;3.45;;;1.10;;
51082;SDS011;37131;42.694;23.350;2022-10-31T00:10:32;2.28;;;0.70;;
51082;SDS011;37131;42.694;23.350;2022-10-31T00:12:57;2.17;;;1.00;;
51082;SDS011;37131;42.694;23.350;2022-10-31T00:15:23;2.40;;;0.75;;
51082;SDS011;37131;42.694;23.350;2022-10-31T00:17:48;3.05;;;1.10;;
51082;SDS011;37131;42.694;23.350;2022-10-31T00:20:14;2.58;;;1.08;;
51082;SDS011;37131;42.694;23.350;2022-10-31T00:22:39;2.13;;;0.68;;
51082;SDS011;37131;42.694;23.350;2022-10-31T00:25:04;3.30;;;1.20;;
51082;SDS011;37131;42.694;23.350;2022-10-31T00:27:30;2.60;;;1.02;;
51082;SDS011;37131;42.694;23.350;2022-10-31T00:29:55;2.55;;;0.75;;
51082;SDS011;37131;42.694;23.350;2022-10-31T00:32:21;2.67;;;1.17;;
51082;SDS011;37131;42.694;23.350;2022-10-31T00:34:46;2.33;;;1.13;;
51082;SDS011;37131;42.694;23.350;2022-10-31T00:37:11;4.07;;;1.33;;
51082;SDS011;37131;42.694;23.350;2022-10-31T00:39:37;2.65;;;1.10;;
51082;SDS011;37131;42.694;23.350;2022-10-31T00:42:02;3.78;;;0.98;;
51082;SDS011;37131;42.694;23.350;2022-10-31T00:44:28;3.17;;;1.27;;
51082;SDS011;37131;42.694;23.350;2022-10-31T00:46:53;2.10;;;1.10;;
51082;SDS011;37131;42.694;23.350;2022-10-31T00:49:18;2.45;;;0.95;;
51082;SDS011;37131;42.694;23.350;2022-10-31T00:51:44;3.97;;;1.50;;
51082;SDS011;37131;42.694;23.350;2022-10-31T00:54:09;4.95;;;1.08;;
51082;SDS011;37131;42.694;23.350;2022-10-31T00:56:34;2.25;;;0.98;;
51082;SDS011;37131;42.694;23.350;2022-10-31T00:59:00;3.17;;;1.15;;
51082;SDS011;37131;42.694;23.350;2022-10-31T01:01:25;3.38;;;1.33;;
51082;SDS011;37131;42.694;23.350;2022-10-31T01:03:50;3.10;;;1.30;;
51082;SDS011;37131;42.694;23.350;2022-10-31T01:06:16;5.63;;;1.10;;
51082;SDS011;37131;42.694;23.350;2022-10-31T01:08:41;2.72;;;1.02;;
51082;SDS011;37131;42.694;23.350;2022-10-31T01:13:36;5.22;;;1.38;;
51082;SDS011;37131;42.694;23.350;2022-10-31T01:16:02;5.22;;;1.85;;
51082;SDS011;37131;42.694;23.350;2022-10-31T01:18:29;4.70;;;1.60;;
51082;SDS011;37131;42.694;23.350;2022-10-31T01:20:58;3.97;;;1.65;;
51082;SDS011;37131;42.694;23.350;2022-10-31T01:23:31;5.10;;;1.48;;
51082;SDS011;37131;42.694;23.350;2022-10-31T01:26:05;5.40;;;1.92;;
51082;SDS011;37131;42.694;23.350;2022-10-31T01:28:33;4.88;;;1.88;;
51082;SDS011;37131;42.694;23.350;2022-10-31T01:31:01;5.43;;;2.05;;
51082;SDS011;37131;42.694;23.350;2022-10-31T01:33:28;5.18;;;1.90;;
51082;SDS011;37131;42.694;23.350;2022-10-31T01:35:54;5.82;;;2.25;;
51082;SDS011;37131;42.694;23.350;2022-10-31T01:38:19;11.35;;;2.42;;
51082;SDS011;37131;42.694;23.350;2022-10-31T01:40:45;4.03;;;1.88;;
51082;SDS011;37131;42.694;23.350;2022-10-31T01:43:13;9.35;;;1.92;;
51082;SDS011;37131;42.694;23.350;2022-10-31T01:45:40;6.97;;;1.73;;
51082;SDS011;37131;42.694;23.350;2022-10-31T01:48:16;6.03;;;1.95;;
51082;SDS011;37131;42.694;23.350;2022-10-31T01:50:44;5.47;;;2.20;;
51082;SDS011;37131;42.694;23.350;2022-10-31T01:53:13;4.05;;;1.98;;
51082;SDS011;37131;42.694;23.350;2022-10-31T01:55:41;4.68;;;1.88;;
51082;SDS011;37131;42.694;23.350;2022-10-31T01:58:13;4.57;;;1.65;;
51082;SDS011;37131;42.694;23.350;2022-10-31T02:00:42;6.22;;;2.13;;
51082;SDS011;37131;42.694;23.350;2022-10-31T02:03:11;6.68;;;2.30;;
51082;SDS011;37131;42.694;23.350;2022-10-31T02:05:37;5.55;;;1.70;;
51082;SDS011;37131;42.694;23.350;2022-10-31T02:08:04;6.78;;;1.98;;
51082;SDS011;37131;42.694;23.350;2022-10-31T02:10:31;6.95;;;2.00;;
51082;SDS011;37131;42.694;23.350;2022-10-31T02:12:58;7.47;;;2.47;;
51082;SDS011;37131;42.694;23.350;2022-10-31T02:15:26;4.47;;;1.90;;
51082;SDS011;37131;42.694;23.350;2022-10-31T02:17:53;7.07;;;2.20;;
51082;SDS011;37131;42.694;23.350;2022-10-31T02:20:19;7.18;;;2.78;;
51082;SDS011;37131;42.694;23.350;2022-10-31T02:28:24;7.90;;;2.88;;
51082;SDS011;37131;42.694;23.350;2022-10-31T02:34:02;7.57;;;2.75;;
51082;SDS011;37131;42.694;23.350;2022-10-31T02:36:49;6.88;;;2.78;;
51082;SDS011;37131;42.694;23.350;2022-10-31T02:39:23;6.97;;;3.08;;
51082;SDS011;37131;42.694;23.350;2022-10-31T02:52:49;13.77;;;3.22;;
51082;SDS011;37131;42.694;23.350;2022-10-31T02:57:47;8.90;;;2.78;;
51082;SDS011;37131;42.694;23.350;2022-10-31T03:00:15;6.75;;;2.92;;
51082;SDS011;37131;42.694;23.350;2022-10-31T03:13:19;6.07;;;2.47;;
51082;SDS011;37131;42.694;23.350;2022-10-31T03:15:56;7.20;;;2.83;;
51082;SDS011;37131;42.694;23.350;2022-10-31T03:18:29;5.55;;;2.55;;
51082;SDS011;37131;42.694;23.350;2022-10-31T03:21:04;8.30;;;2.93;;
51082;SDS011;37131;42.694;23.350;2022-10-31T03:23:35;7.28;;;2.95;;
51082;SDS011;37131;42.694;23.350;2022-10-31T03:26:03;8.63;;;2.88;;
51082;SDS011;37131;42.694;23.350;2022-10-31T03:28:34;5.10;;;2.65;;
51082;SDS011;37131;42.694;23.350;2022-10-31T03:31:06;10.55;;;2.85;;
51082;SDS011;37131;42.694;23.350;2022-10-31T03:33:35;8.00;;;2.85;;
51082;SDS011;37131;42.694;23.350;2022-10-31T03:36:03;8.30;;;2.95;;
51082;SDS011;37131;42.694;23.350;2022-10-31T03:38:31;7.65;;;2.60;;
51082;SDS011;37131;42.694;23.350;2022-10-31T03:40:59;9.70;;;3.58;;
51082;SDS011;37131;42.694;23.350;2022-10-31T03:43:30;4.82;;;2.60;;
51082;SDS011;37131;42.694;23.350;2022-10-31T03:46:01;7.63;;;2.60;;
51082;SDS011;37131;42.694;23.350;2022-10-31T03:48:28;11.00;;;2.95;;
51082;SDS011;37131;42.694;23.350;2022-10-31T03:51:07;6.45;;;2.80;;
51082;SDS011;37131;42.694;23.350;2022-10-31T03:54:37;7.80;;;3.13;;
51082;SDS011;37131;42.694;23.350;2022-10-31T03:56:49;7.43;;;2.25;;
51082;SDS011;37131;42.694;23.350;2022-10-31T03:59:18;5.00;;;2.20;;
51082;SDS011;37131;42.694;23.350;2022-10-31T04:01:49;5.43;;;2.30;;
51082;SDS011;37131;42.694;23.350;2022-10-31T04:04:17;6.00;;;2.72;;
51082;SDS011;37131;42.694;23.350;2022-10-31T04:06:44;7.53;;;2.63;;
51082;SDS011;37131;42.694;23.350;2022-10-31T04:09:12;9.98;;;2.60;;
51082;SDS011;37131;42.694;23.350;2022-10-31T04:11:40;8.85;;;2.30;;
51082;SDS011;37131;42.694;23.350;2022-10-31T04:14:11;6.22;;;2.35;;
51082;SDS011;37131;42.694;23.350;2022-10-31T04:16:38;4.70;;;2.17;;
51082;SDS011;37131;42.694;23.350;2022-10-31T04:19:06;7.22;;;3.03;;
51082;SDS011;37131;42.694;23.350;2022-10-31T04:21:32;7.85;;;2.50;;
51082;SDS011;37131;42.694;23.350;2022-10-31T04:23:57;6.45;;;2.63;;
51082;SDS011;37131;42.694;23.350;2022-10-31T04:26:23;6.82;;;2.75;;
51082;SDS011;37131;42.694;23.350;2022-10-31T04:28:49;7.35;;;2.05;;
51082;SDS011;37131;42.694;23.350;2022-10-31T04:31:14;7.10;;;2.40;;
51082;SDS011;37131;42.694;23.350;2022-10-31T04:33:40;7.70;;;2.72;;
51082;SDS011;37131;42.694;23.350;2022-10-31T04:36:05;7.90;;;2.20;;
51082;SDS011;37131;42.694;23.350;2022-10-31T04:38:31;8.30;;;2.35;;
51082;SDS011;37131;42.694;23.350;2022-10-31T04:40:57;8.65;;;2.83;;
51082;SDS011;37131;42.694;23.350;2022-10-31T04:43:22;9.55;;;2.78;;
51082;SDS011;37131;42.694;23.350;2022-10-31T04:45:48;6.35;;;2.45;;
51082;SDS011;37131;42.694;23.350;2022-10-31T04:48:13;5.88;;;2.45;;
51082;SDS011;37131;42.694;23.350;2022-10-31T04:50:39;9.82;;;2.90;;
51082;SDS011;37131;42.694;23.350;2022-10-31T04:53:04;16.88;;;4.75;;
51082;SDS011;37131;42.694;23.350;2022-10-31T04:55:30;32.70;;;12.70;;
51082;SDS011;37131;42.694;23.350;2022-10-31T04:57:55;18.65;;;9.32;;
51082;SDS011;37131;42.694;23.350;2022-10-31T05:00:21;16.63;;;6.80;;
51082;SDS011;37131;42.694;23.350;2022-10-31T05:05:12;14.75;;;5.22;;
51082;SDS011;37131;42.694;23.350;2022-10-31T05:07:40;9.82;;;4.50;;
51082;SDS011;37131;42.694;23.350;2022-10-31T05:10:10;12.88;;;4.93;;
51082;SDS011;37131;42.694;23.350;2022-10-31T05:12:37;10.77;;;4.25;;
51082;SDS011;37131;42.694;23.350;2022-10-31T05:15:03;7.88;;;4.05;;
51082;SDS011;37131;42.694;23.350;2022-10-31T05:17:30;9.68;;;3.95;;
51082;SDS011;37131;42.694;23.350;2022-10-31T05:19:56;14.18;;;4.20;;
51082;SDS011;37131;42.694;23.350;2022-10-31T05:22:21;8.85;;;4.00;;
51082;SDS011;37131;42.694;23.350;2022-10-31T05:24:47;10.32;;;3.25;;
51082;SDS011;37131;42.694;23.350;2022-10-31T05:27:12;6.32;;;3.15;;
51082;SDS011;37131;42.694;23.350;2022-10-31T05:29:38;10.35;;;3.25;;
51082;SDS011;37131;42.694;23.350;2022-10-31T05:32:03;10.68;;;3.85;;
51082;SDS011;37131;42.694;23.350;2022-10-31T05:34:28;13.15;;;3.97;;
51082;SDS011;37131;42.694;23.350;2022-10-31T05:36:54;18.05;;;4.40;;
51082;SDS011;37131;42.694;23.350;2022-10-31T05:39:19;11.32;;;3.92;;
51082;SDS011;37131;42.694;23.350;2022-10-31T05:41:44;9.90;;;4.03;;
51082;SDS011;37131;42.694;23.350;2022-10-31T05:44:10;6.95;;;3.55;;
51082;SDS011;37131;42.694;23.350;2022-10-31T05:46:35;10.00;;;3.30;;
51082;SDS011;37131;42.694;23.350;2022-10-31T05:49:00;8.35;;;3.50;;
51082;SDS011;37131;42.694;23.350;2022-10-31T05:51:26;9.07;;;3.65;;
51082;SDS011;37131;42.694;23.350;2022-10-31T05:53:51;7.57;;;2.80;;
51082;SDS011;37131;42.694;23.350;2022-10-31T05:56:17;10.30;;;4.00;;
51082;SDS011;37131;42.694;23.350;2022-10-31T05:58:42;7.45;;;3.33;;
51082;SDS011;37131;42.694;23.350;2022-10-31T06:01:07;9.40;;;2.80;;
51082;SDS011;37131;42.694;23.350;2022-10-31T06:03:33;7.72;;;3.15;;
51082;SDS011;37131;42.694;23.350;2022-10-31T06:05:58;9.43;;;3.38;;
51082;SDS011;37131;42.694;23.350;2022-10-31T06:08:24;9.68;;;3.15;;
51082;SDS011;37131;42.694;23.350;2022-10-31T06:10:49;11.48;;;4.35;;
51082;SDS011;37131;42.694;23.350;2022-10-31T06:13:15;8.50;;;3.45;;
51082;SDS011;37131;42.694;23.350;2022-10-31T06:15:41;8.00;;;3.20;;
51082;SDS011;37131;42.694;23.350;2022-10-31T06:18:07;9.70;;;3.33;;
51082;SDS011;37131;42.694;23.350;2022-10-31T06:20:33;8.43;;;3.35;;
51082;SDS011;37131;42.694;23.350;2022-10-31T06:22:59;8.50;;;3.10;;
51082;SDS011;37131;42.694;23.350;2022-10-31T06:25:25;8.38;;;3.65;;
51082;SDS011;37131;42.694;23.350;2022-10-31T06:27:50;13.57;;;3.63;;
51082;SDS011;37131;42.694;23.350;2022-10-31T06:30:16;20.10;;;3.40;;
51082;SDS011;37131;42.694;23.350;2022-10-31T06:32:41;6.78;;;2.90;;
51082;SDS011;37131;42.694;23.350;2022-10-31T06:35:07;11.80;;;3.08;;
51082;SDS011;37131;42.694;23.350;2022-10-31T06:37:32;9.30;;;2.78;;
51082;SDS011;37131;42.694;23.350;2022-10-31T06:39:58;6.47;;;2.67;;
51082;SDS011;37131;42.694;23.350;2022-10-31T06:42:23;5.90;;;2.72;;
51082;SDS011;37131;42.694;23.350;2022-10-31T06:44:48;5.10;;;2.78;;
51082;SDS011;37131;42.694;23.350;2022-10-31T06:47:14;6.47;;;2.80;;
51082;SDS011;37131;42.694;23.350;2022-10-31T06:49:39;5.50;;;2.70;;
51082;SDS011;37131;42.694;23.350;2022-10-31T06:52:05;7.05;;;3.10;;
51082;SDS011;37131;42.694;23.350;2022-10-31T06:54:30;7.35;;;2.45;;
51082;SDS011;37131;42.694;23.350;2022-10-31T06:56:55;8.80;;;3.25;;
51082;SDS011;37131;42.694;23.350;2022-10-31T06:59:21;6.45;;;2.72;;
51082;SDS011;37131;42.694;23.350;2022-10-31T07:01:46;8.82;;;3.33;;
51082;SDS011;37131;42.694;23.350;2022-10-31T07:04:12;6.30;;;2.72;;
51082;SDS011;37131;42.694;23.350;2022-10-31T07:06:37;6.55;;;2.38;;
51082;SDS011;37131;42.694;23.350;2022-10-31T07:09:03;5.40;;;2.33;;
51082;SDS011;37131;42.694;23.350;2022-10-31T07:11:29;8.70;;;2.50;;
51082;SDS011;37131;42.694;23.350;2022-10-31T07:13:54;5.95;;;2.40;;
51082;SDS011;37131;42.694;23.350;2022-10-31T07:16:20;4.28;;;2.53;;
51082;SDS011;37131;42.694;23.350;2022-10-31T07:18:46;6.80;;;2.50;;
51082;SDS011;37131;42.694;23.350;2022-10-31T07:21:11;6.60;;;2.92;;
51082;SDS011;37131;42.694;23.350;2022-10-31T07:23:36;11.52;;;3.58;;
51082;SDS011;37131;42.694;23.350;2022-10-31T07:26:02;5.78;;;3.22;;
51082;SDS011;37131;42.694;23.350;2022-10-31T07:28:27;8.70;;;3.95;;
51082;SDS011;37131;42.694;23.350;2022-10-31T07:30:53;6.85;;;3.33;;
51082;SDS011;37131;42.694;23.350;2022-10-31T07:33:20;11.55;;;3.67;;
51082;SDS011;37131;42.694;23.350;2022-10-31T07:35:46;6.57;;;3.20;;
51082;SDS011;37131;42.694;23.350;2022-10-31T07:38:13;11.25;;;3.20;;
51082;SDS011;37131;42.694;23.350;2022-10-31T07:40:40;13.35;;;3.72;;
51082;SDS011;37131;42.694;23.350;2022-10-31T07:43:07;8.25;;;3.10;;
51082;SDS011;37131;42.694;23.350;2022-10-31T07:45:33;8.63;;;3.30;;
51082;SDS011;37131;42.694;23.350;2022-10-31T07:47:58;13.95;;;4.20;;
51082;SDS011;37131;42.694;23.350;2022-10-31T07:50:25;14.38;;;4.20;;
51082;SDS011;37131;42.694;23.350;2022-10-31T07:53:08;12.23;;;4.78;;
51082;SDS011;37131;42.694;23.350;2022-10-31T07:55:37;8.55;;;3.85;;
51082;SDS011;37131;42.694;23.350;2022-10-31T08:00:32;17.00;;;5.35;;
51082;SDS011;37131;42.694;23.350;2022-10-31T08:02:59;11.10;;;4.00;;
51082;SDS011;37131;42.694;23.350;2022-10-31T08:05:29;7.78;;;3.35;;
51082;SDS011;37131;42.694;23.350;2022-10-31T08:07:55;7.25;;;4.03;;
51082;SDS011;37131;42.694;23.350;2022-10-31T08:10:21;13.93;;;4.07;;
51082;SDS011;37131;42.694;23.350;2022-10-31T08:12:47;10.73;;;4.10;;
51082;SDS011;37131;42.694;23.350;2022-10-31T08:15:19;10.98;;;3.63;;
51082;SDS011;37131;42.694;23.350;2022-10-31T08:17:44;17.50;;;4.45;;
51082;SDS011;37131;42.694;23.350;2022-10-31T08:20:10;14.30;;;4.65;;
51082;SDS011;37131;42.694;23.350;2022-10-31T08:22:35;10.73;;;3.60;;
51082;SDS011;37131;42.694;23.350;2022-10-31T08:25:01;15.13;;;4.50;;
51082;SDS011;37131;42.694;23.350;2022-10-31T08:27:26;12.60;;;4.25;;
51082;SDS011;37131;42.694;23.350;2022-10-31T08:29:52;10.85;;;4.35;;
51082;SDS011;37131;42.694;23.350;2022-10-31T08:32:17;8.75;;;4.18;;
51082;SDS011;37131;42.694;23.350;2022-10-31T08:34:42;10.65;;;3.92;;
51082;SDS011;37131;42.694;23.350;2022-10-31T08:37:08;8.70;;;3.67;;
51082;SDS011;37131;42.694;23.350;2022-10-31T08:39:33;11.57;;;4.03;;
51082;SDS011;37131;42.694;23.350;2022-10-31T08:41:58;8.10;;;3.58;;
51082;SDS011;37131;42.694;23.350;2022-10-31T08:44:24;7.93;;;3.47;;
51082;SDS011;37131;42.694;23.350;2022-10-31T08:46:49;9.38;;;3.78;;
51082;SDS011;37131;42.694;23.350;2022-10-31T08:49:15;12.23;;;4.30;;
51082;SDS011;37131;42.694;23.350;2022-10-31T08:51:40;7.85;;;3.25;;
51082;SDS011;37131;42.694;23.350;2022-10-31T08:54:05;8.15;;;3.95;;
51082;SDS011;37131;42.694;23.350;2022-10-31T08:56:31;6.47;;;3.33;;
51082;SDS011;37131;42.694;23.350;2022-10-31T08:58:56;9.38;;;3.35;;
51082;SDS011;37131;42.694;23.350;2022-10-31T09:01:21;13.30;;;4.78;;
51082;SDS011;37131;42.694;23.350;2022-10-31T09:03:47;8.95;;;3.85;;
51082;SDS011;37131;42.694;23.350;2022-10-31T09:06:12;17.17;;;7.28;;
51082;SDS011;37131;42.694;23.350;2022-10-31T09:08:38;7.20;;;3.38;;
51082;SDS011;37131;42.694;23.350;2022-10-31T09:11:03;12.00;;;3.90;;
51082;SDS011;37131;42.694;23.350;2022-10-31T09:13:31;11.90;;;4.53;;
51082;SDS011;37131;42.694;23.350;2022-10-31T09:15:57;12.48;;;4.70;;
51082;SDS011;37131;42.694;23.350;2022-10-31T09:18:23;8.68;;;4.40;;
51082;SDS011;37131;42.694;23.350;2022-10-31T09:20:49;11.40;;;4.18;;
51082;SDS011;37131;42.694;23.350;2022-10-31T09:23:16;14.13;;;5.85;;
51082;SDS011;37131;42.694;23.350;2022-10-31T09:25:46;11.88;;;4.38;;
51082;SDS011;37131;42.694;23.350;2022-10-31T09:28:14;13.32;;;4.25;;
51082;SDS011;37131;42.694;23.350;2022-10-31T09:30:41;10.27;;;3.80;;
51082;SDS011;37131;42.694;23.350;2022-10-31T09:33:10;8.50;;;3.65;;
51082;SDS011;37131;42.694;23.350;2022-10-31T09:35:37;7.72;;;3.10;;
51082;SDS011;37131;42.694;23.350;2022-10-31T09:38:04;6.57;;;2.95;;
51082;SDS011;37131;42.694;23.350;2022-10-31T09:40:38;6.22;;;2.95;;
51082;SDS011;37131;42.694;23.350;2022-10-31T09:43:12;11.82;;;3.55;;
51082;SDS011;37131;42.694;23.350;2022-10-31T09:46:21;6.47;;;2.43;;
51082;SDS011;37131;42.694;23.350;2022-10-31T09:51:17;5.70;;;2.58;;
51082;SDS011;37131;42.694;23.350;2022-10-31T09:54:20;7.93;;;2.72;;
51082;SDS011;37131;42.694;23.350;2022-10-31T09:56:52;5.75;;;2.50;;
51082;SDS011;37131;42.694;23.350;2022-10-31T09:59:24;7.57;;;2.60;;
51082;SDS011;37131;42.694;23.350;2022-10-31T10:02:03;9.23;;;2.70;;
51082;SDS011;37131;42.694;23.350;2022-10-31T10:09:51;5.13;;;1.95;;
51082;SDS011;37131;42.694;23.350;2022-10-31T10:12:31;5.82;;;2.50;;
51082;SDS011;37131;42.694;23.350;2022-10-31T10:18:07;6.25;;;2.13;;
51082;SDS011;37131;42.694;23.350;2022-10-31T10:23:36;8.50;;;2.73;;
51082;SDS011;37131;42.694;23.350;2022-10-31T10:26:28;4.03;;;1.95;;
51082;SDS011;37131;42.694;23.350;2022-10-31T10:28:57;12.13;;;2.10;;
51082;SDS011;37131;42.694;23.350;2022-10-31T10:31:39;3.92;;;1.65;;
51082;SDS011;37131;42.694;23.350;2022-10-31T10:34:18;6.78;;;1.92;;
51082;SDS011;37131;42.694;23.350;2022-10-31T10:41:48;4.18;;;1.60;;
51082;SDS011;37131;42.694;23.350;2022-10-31T10:44:34;5.03;;;1.75;;
51082;SDS011;37131;42.694;23.350;2022-10-31T10:47:21;4.88;;;1.90;;
51082;SDS011;37131;42.694;23.350;2022-10-31T10:50:03;4.03;;;1.33;;
51082;SDS011;37131;42.694;23.350;2022-10-31T10:55:32;6.50;;;1.55;;
51082;SDS011;37131;42.694;23.350;2022-10-31T10:58:03;2.67;;;1.30;;
51082;SDS011;37131;42.694;23.350;2022-10-31T11:03:05;4.47;;;1.27;;
51082;SDS011;37131;42.694;23.350;2022-10-31T11:05:45;2.65;;;1.02;;
51082;SDS011;37131;42.694;23.350;2022-10-31T11:10:59;3.47;;;1.35;;
51082;SDS011;37131;42.694;23.350;2022-10-31T11:13:27;4.75;;;1.40;;
51082;SDS011;37131;42.694;23.350;2022-10-31T11:15:55;3.17;;;1.38;;
51082;SDS011;37131;42.694;23.350;2022-10-31T11:18:32;3.72;;;1.33;;
51082;SDS011;37131;42.694;23.350;2022-10-31T11:21:02;3.03;;;0.90;;
51082;SDS011;37131;42.694;23.350;2022-10-31T11:23:29;3.70;;;0.90;;
51082;SDS011;37131;42.694;23.350;2022-10-31T11:25:58;2.90;;;1.13;;
51082;SDS011;37131;42.694;23.350;2022-10-31T11:28:24;2.85;;;1.10;;
51082;SDS011;37131;42.694;23.350;2022-10-31T11:30:54;2.40;;;1.10;;
51082;SDS011;37131;42.694;23.350;2022-10-31T11:35:56;2.15;;;1.05;;
51082;SDS011;37131;42.694;23.350;2022-10-31T11:38:33;2.15;;;1.10;;
51082;SDS011;37131;42.694;23.350;2022-10-31T11:43:37;11.10;;;3.95;;
51082;SDS011;37131;42.694;23.350;2022-10-31T11:46:16;5.25;;;2.00;;
51082;SDS011;37131;42.694;23.350;2022-10-31T11:49:03;2.45;;;0.98;;
51082;SDS011;37131;42.694;23.350;2022-10-31T11:51:35;5.75;;;2.33;;
51082;SDS011;37131;42.694;23.350;2022-10-31T11:54:02;4.07;;;1.75;;
51082;SDS011;37131;42.694;23.350;2022-10-31T11:56:39;4.65;;;1.50;;
51082;SDS011;37131;42.694;23.350;2022-10-31T11:59:06;2.97;;;1.00;;
51082;SDS011;37131;42.694;23.350;2022-10-31T12:01:46;2.03;;;1.00;;
51082;SDS011;37131;42.694;23.350;2022-10-31T12:04:13;3.85;;;1.23;;
51082;SDS011;37131;42.694;23.350;2022-10-31T12:06:39;3.30;;;1.08;;
51082;SDS011;37131;42.694;23.350;2022-10-31T12:09:20;1.85;;;0.85;;
51082;SDS011;37131;42.694;23.350;2022-10-31T12:28:44;1.95;;;1.10;;
51082;SDS011;37131;42.694;23.350;2022-10-31T12:33:59;3.78;;;0.80;;
51082;SDS011;37131;42.694;23.350;2022-10-31T12:47:50;3.72;;;0.80;;
51082;SDS011;37131;42.694;23.350;2022-10-31T12:53:23;6.85;;;0.90;;
51082;SDS011;37131;42.694;23.350;2022-10-31T12:56:03;2.97;;;0.82;;
51082;SDS011;37131;42.694;23.350;2022-10-31T13:01:34;4.47;;;1.58;;
51082;SDS011;37131;42.694;23.350;2022-10-31T13:04:10;3.47;;;1.15;;
51082;SDS011;37131;42.694;23.350;2022-10-31T13:06:46;2.83;;;1.05;;
51082;SDS011;37131;42.694;23.350;2022-10-31T13:09:19;5.15;;;1.00;;
51082;SDS011;37131;42.694;23.350;2022-10-31T13:11:55;4.10;;;0.95;;
51082;SDS011;37131;42.694;23.350;2022-10-31T13:16:58;4.25;;;1.13;;
51082;SDS011;37131;42.694;23.350;2022-10-31T13:19:25;3.00;;;0.82;;
51082;SDS011;37131;42.694;23.350;2022-10-31T13:22:04;3.92;;;0.90;;
51082;SDS011;37131;42.694;23.350;2022-10-31T13:24:38;4.05;;;0.90;;
51082;SDS011;37131;42.694;23.350;2022-10-31T13:27:24;3.92;;;1.10;;
51082;SDS011;37131;42.694;23.350;2022-10-31T13:32:24;2.35;;;1.30;;
51082;SDS011;37131;42.694;23.350;2022-10-31T13:34:54;1.65;;;0.80;;
51082;SDS011;37131;42.694;23.350;2022-10-31T13:37:36;3.50;;;0.93;;
51082;SDS011;37131;42.694;23.350;2022-10-31T13:45:12;6.22;;;1.00;;
51082;SDS011;37131;42.694;23.350;2022-10-31T13:50:43;2.72;;;0.90;;
51082;SDS011;37131;42.694;23.350;2022-10-31T13:59:04;3.97;;;0.88;;
51082;SDS011;37131;42.694;23.350;2022-10-31T14:02:01;2.90;;;0.77;;
51082;SDS011;37131;42.694;23.350;2022-10-31T14:04:43;2.13;;;1.10;;
51082;SDS011;37131;42.694;23.350;2022-10-31T14:07:15;2.75;;;1.02;;
51082;SDS011;37131;42.694;23.350;2022-10-31T14:09:56;3.85;;;0.80;;
51082;SDS011;37131;42.694;23.350;2022-10-31T14:12:24;2.40;;;1.00;;
51082;SDS011;37131;42.694;23.350;2022-10-31T14:15:27;1.77;;;0.90;;
51082;SDS011;37131;42.694;23.350;2022-10-31T14:17:58;3.55;;;1.25;;
51082;SDS011;37131;42.694;23.350;2022-10-31T14:22:50;1.88;;;1.05;;
51082;SDS011;37131;42.694;23.350;2022-10-31T14:27:53;3.90;;;1.10;;
51082;SDS011;37131;42.694;23.350;2022-10-31T14:30:20;3.10;;;0.90;;
51082;SDS011;37131;42.694;23.350;2022-10-31T14:32:51;2.72;;;0.98;;
51082;SDS011;37131;42.694;23.350;2022-10-31T14:35:19;1.55;;;0.90;;
51082;SDS011;37131;42.694;23.350;2022-10-31T14:40:39;3.67;;;1.15;;
51082;SDS011;37131;42.694;23.350;2022-10-31T14:46:02;6.82;;;1.30;;
51082;SDS011;37131;42.694;23.350;2022-10-31T14:51:19;22.55;;;3.72;;
51082;SDS011;37131;42.694;23.350;2022-10-31T14:56:26;6.30;;;1.30;;
51082;SDS011;37131;42.694;23.350;2022-10-31T14:59:00;5.25;;;1.60;;
51082;SDS011;37131;42.694;23.350;2022-10-31T15:01:32;8.50;;;1.70;;
51082;SDS011;37131;42.694;23.350;2022-10-31T15:04:07;13.13;;;2.28;;
51082;SDS011;37131;42.694;23.350;2022-10-31T15:06:39;6.07;;;1.73;;
51082;SDS011;37131;42.694;23.350;2022-10-31T15:09:21;3.78;;;1.60;;
51082;SDS011;37131;42.694;23.350;2022-10-31T15:11:52;5.22;;;1.60;;
51082;SDS011;37131;42.694;23.350;2022-10-31T15:14:35;11.30;;;2.22;;
51082;SDS011;37131;42.694;23.350;2022-10-31T15:17:01;2.80;;;1.45;;
51082;SDS011;37131;42.694;23.350;2022-10-31T15:19:29;6.65;;;2.05;;
51082;SDS011;37131;42.694;23.350;2022-10-31T15:21:57;4.05;;;1.45;;
51082;SDS011;37131;42.694;23.350;2022-10-31T15:24:24;3.08;;;1.42;;
51082;SDS011;37131;42.694;23.350;2022-10-31T15:27:01;7.50;;;1.48;;
51082;SDS011;37131;42.694;23.350;2022-10-31T15:29:28;5.43;;;1.40;;
51082;SDS011;37131;42.694;23.350;2022-10-31T15:37:19;5.85;;;1.00;;
51082;SDS011;37131;42.694;23.350;2022-10-31T15:39:46;6.07;;;1.40;;
51082;SDS011;37131;42.694;23.350;2022-10-31T15:42:15;5.05;;;1.20;;
51082;SDS011;37131;42.694;23.350;2022-10-31T15:44:42;4.00;;;0.93;;
51082;SDS011;37131;42.694;23.350;2022-10-31T15:47:21;8.43;;;1.40;;
51082;SDS011;37131;42.694;23.350;2022-10-31T15:49:55;4.60;;;1.08;;
51082;SDS011;37131;42.694;23.350;2022-10-31T15:52:31;4.40;;;1.08;;
51082;SDS011;37131;42.694;23.350;2022-10-31T15:55:21;8.05;;;1.30;;
51082;SDS011;37131;42.694;23.350;2022-10-31T15:57:50;2.47;;;1.00;;
51082;SDS011;37131;42.694;23.350;2022-10-31T16:00:32;5.43;;;1.25;;
51082;SDS011;37131;42.694;23.350;2022-10-31T16:05:43;2.08;;;1.10;;
51082;SDS011;37131;42.694;23.350;2022-10-31T16:13:34;12.40;;;1.63;;
51082;SDS011;37131;42.694;23.350;2022-10-31T16:16:03;4.78;;;1.60;;
51082;SDS011;37131;42.694;23.350;2022-10-31T16:18:37;6.00;;;1.40;;
51082;SDS011;37131;42.694;23.350;2022-10-31T16:21:05;5.95;;;1.85;;
51082;SDS011;37131;42.694;23.350;2022-10-31T16:23:31;8.10;;;1.50;;
51082;SDS011;37131;42.694;23.350;2022-10-31T16:25:57;7.90;;;1.65;;
51082;SDS011;37131;42.694;23.350;2022-10-31T16:28:23;8.48;;;1.80;;
51082;SDS011;37131;42.694;23.350;2022-10-31T16:30:51;11.73;;;1.63;;
51082;SDS011;37131;42.694;23.350;2022-10-31T16:35:54;11.02;;;1.42;;
51082;SDS011;37131;42.694;23.350;2022-10-31T16:38:21;9.65;;;1.58;;
51082;SDS011;37131;42.694;23.350;2022-10-31T16:40:47;7.50;;;1.63;;
51082;SDS011;37131;42.694;23.350;2022-10-31T16:43:14;6.13;;;1.70;;
51082;SDS011;37131;42.694;23.350;2022-10-31T16:45:46;9.07;;;1.35;;
51082;SDS011;37131;42.694;23.350;2022-10-31T16:48:17;4.82;;;1.52;;
51082;SDS011;37131;42.694;23.350;2022-10-31T16:50:45;7.50;;;1.90;;
51082;SDS011;37131;42.694;23.350;2022-10-31T16:53:12;10.43;;;1.88;;
51082;SDS011;37131;42.694;23.350;2022-10-31T16:55:41;5.57;;;1.70;;
51082;SDS011;37131;42.694;23.350;2022-10-31T16:58:12;12.82;;;2.45;;
51082;SDS011;37131;42.694;23.350;2022-10-31T17:00:45;7.82;;;2.28;;
51082;SDS011;37131;42.694;23.350;2022-10-31T17:03:11;8.23;;;1.88;;
51082;SDS011;37131;42.694;23.350;2022-10-31T17:05:36;10.18;;;2.50;;
51082;SDS011;37131;42.694;23.350;2022-10-31T17:08:02;12.65;;;2.00;;
51082;SDS011;37131;42.694;23.350;2022-10-31T17:10:28;5.78;;;2.10;;
51082;SDS011;37131;42.694;23.350;2022-10-31T17:12:54;10.02;;;1.83;;
51082;SDS011;37131;42.694;23.350;2022-10-31T17:15:25;8.45;;;2.17;;
51082;SDS011;37131;42.694;23.350;2022-10-31T17:17:53;18.23;;;2.55;;
51082;SDS011;37131;42.694;23.350;2022-10-31T17:22:43;5.93;;;2.35;;
51082;SDS011;37131;42.694;23.350;2022-10-31T17:25:12;14.15;;;3.13;;